K4GDX Jacksonville Beach FL US current weather conditions

sailwx.info

Wind from 318

Air temperature 11.1° C
Dewpoint 9.9° C

Last reported at 2020-Jan-25 11:21 UTC.
Time now 2020-Jan-25 14:54 UTC

Location: N 30°16' W 081°27'.
View on Google Maps.

See reports from other nearby stations

  
Tides and Currents Weather Stations Pressure Air Temp Water Temp Dewpoint Dewpoint Depression Visibility Wind Speed Wind Dir Waves Ship Positions
date/time (UTC)wind fromknots sea level pressurealtimeterstation pressurevisibilityair tempwater tempwave heightnotes
2020-Jan-25 11:21 318 11.1
2020-Jan-25 10:51 318 12.2
2020-Jan-25 10:36 318 0 gusting 5 12.8
2020-Jan-25 10:26 316 0 gusting 4 12.8
2020-Jan-25 09:56 319 2 gusting 6 13.3
2020-Jan-25 09:51 327 1 gusting 6 13.3
2020-Jan-25 08:56 305 1 gusting 5 14.4
2020-Jan-25 08:31 283 1 gusting 8 15.0
2020-Jan-25 07:36 299 1 gusting 6 15.0
2020-Jan-25 05:47 252 2 gusting 6 16.7
2020-Jan-25 04:36 263 16.7
2020-Jan-25 04:21 181 0 gusting 4 16.7
2020-Jan-25 04:01 243 0 gusting 5 17.2
2020-Jan-25 03:41 254 1 gusting 6 17.2
2020-Jan-25 02:51 208 17.2
2020-Jan-25 02:36 202 0 gusting 6 17.2
2020-Jan-25 01:31 199 1 gusting 4 17.2
2020-Jan-24 21:26 248 20.6
2020-Jan-24 21:16 254 2 gusting 6 21.1
2020-Jan-24 20:52 138 21.7
2020-Jan-24 20:06 166 2 gusting 8 23.9
2020-Jan-24 19:52 218 3 gusting 11 24.4
2020-Jan-24 18:56 192 4 gusting 9 23.9
2020-Jan-24 18:36 199 3 gusting 8 24.4
2020-Jan-24 18:21 197 3 gusting 11 23.9
2020-Jan-24 18:02 175 4 gusting 12 23.9
2020-Jan-24 17:32 146 1 gusting 7 22.8
2020-Jan-24 14:21 153 1 gusting 6 17.8
2020-Jan-24 13:06 041 14.4
2020-Jan-24 11:36 041 14.4
2020-Jan-24 10:27 040 0 gusting 4 14.4
2020-Jan-24 08:41 040 14.4
2020-Jan-24 08:26 040 14.4
2020-Jan-24 06:41 040 13.9
2020-Jan-24 06:11 040 13.9
2020-Jan-24 05:46 040 13.9
2020-Jan-24 05:31 040 13.9
2020-Jan-24 04:46 040 13.3
2020-Jan-24 04:11 040 13.3
2020-Jan-24 02:21 040 14.4
2020-Jan-24 02:01 041 1 gusting 4 14.4
2020-Jan-24 01:26 039 2 gusting 6 14.4
2020-Jan-23 23:06 026 1 gusting 7 13.9
2020-Jan-23 21:51 045 4 gusting 12 13.9
2020-Jan-23 21:16 048 7 gusting 14 13.9
2020-Jan-23 20:51 035 3 gusting 7 13.9
2020-Jan-23 20:36 039 1 gusting 12 13.9
2020-Jan-23 19:56 015 1 gusting 8 14.4
2020-Jan-23 19:26 051 5 gusting 10 14.4
2020-Jan-23 18:02 009 2 gusting 7 15.0
2020-Jan-23 17:26 039 5 gusting 10 15.0
2020-Jan-23 16:56 032 2 gusting 11 15.0
2020-Jan-23 16:46 028 5 gusting 12 15.0
2020-Jan-23 16:26 044 3 gusting 11 15.0
2020-Jan-23 16:21 032 4 gusting 12 15.0
2020-Jan-23 16:07 043 3 gusting 9 15.0
2020-Jan-23 15:36 016 3 gusting 7 15.0
2020-Jan-23 15:21 033 6 gusting 12 14.4
2020-Jan-23 14:11 035 2 gusting 6 14.4